createdAt,value
2018-03-02T00:00:55.531Z,14.87
2018-03-02T00:03:23.433Z,16.58
2018-03-02T00:05:51.385Z,16.23
2018-03-02T00:08:19.280Z,15.85
2018-03-02T00:10:47.226Z,14.85
2018-03-02T00:13:20.510Z,14.65
2018-03-02T00:15:48.460Z,14.77
2018-03-02T00:18:16.468Z,14.98
2018-03-02T00:20:45.243Z,15.63
2018-03-02T00:23:13.949Z,15.85
2018-03-02T00:25:41.905Z,13.85
2018-03-02T00:28:09.806Z,15.35
2018-03-02T00:30:37.749Z,15.20
2018-03-02T00:33:06.417Z,15.20
2018-03-02T00:35:34.364Z,13.62
2018-03-02T00:38:02.273Z,14.52
2018-03-02T00:40:30.264Z,15.40
2018-03-02T00:42:58.231Z,15.55
2018-03-02T00:45:26.165Z,16.12
2018-03-02T00:47:54.087Z,15.35
2018-03-02T00:50:22.036Z,15.15
2018-03-02T00:52:53.882Z,15.50
2018-03-02T00:55:22.586Z,15.10
2018-03-02T00:57:50.477Z,15.85
2018-03-02T01:00:18.429Z,15.65
2018-03-02T01:02:46.470Z,15.43
2018-03-02T01:05:14.432Z,17.23
2018-03-02T01:07:42.435Z,14.70
2018-03-02T01:10:10.424Z,13.95
2018-03-02T01:12:38.360Z,16.23
2018-03-02T01:15:07.060Z,14.90
2018-03-02T01:17:34.937Z,15.52
2018-03-02T01:20:02.834Z,17.87
2018-03-02T01:22:30.768Z,14.70
2018-03-02T01:24:58.674Z,15.20
2018-03-02T01:27:26.618Z,14.73
2018-03-02T01:29:54.514Z,16.60
2018-03-02T01:32:22.509Z,16.02
2018-03-02T01:34:50.396Z,18.02
2018-03-02T01:37:18.380Z,14.90
2018-03-02T01:39:47.028Z,17.12
2018-03-02T01:42:14.963Z,17.73
2018-03-02T01:44:43.611Z,15.60
2018-03-02T01:47:12.324Z,16.65
2018-03-02T01:49:40.205Z,17.52
2018-03-02T01:52:08.207Z,17.48
2018-03-02T01:54:36.292Z,16.37
2018-03-02T01:57:04.244Z,15.65
2018-03-02T01:59:32.128Z,17.35
2018-03-02T02:02:00.058Z,17.23
2018-03-02T02:04:27.946Z,17.30
2018-03-02T02:06:55.905Z,16.25
2018-03-02T02:09:23.858Z,16.50
2018-03-02T02:11:51.803Z,16.25
2018-03-02T02:14:19.699Z,18.00
2018-03-02T02:16:47.644Z,17.15
2018-03-02T02:19:15.627Z,15.82
2018-03-02T02:21:43.568Z,17.00
2018-03-02T02:24:16.244Z,15.85
2018-03-02T02:26:44.177Z,17.00
2018-03-02T02:29:12.058Z,14.73
2018-03-02T02:31:40.004Z,16.62
2018-03-02T02:34:07.944Z,17.75
2018-03-02T02:36:35.881Z,16.67
2018-03-02T02:39:03.894Z,17.67
2018-03-02T02:41:31.852Z,17.02
2018-03-02T02:43:59.754Z,16.55
2018-03-02T02:46:27.713Z,16.17
2018-03-02T02:48:55.604Z,18.02
2018-03-02T02:51:23.545Z,17.87
2018-03-02T02:53:51.566Z,17.65
2018-03-02T02:56:19.502Z,18.25
2018-03-02T02:58:47.525Z,17.02
2018-03-02T03:01:18.824Z,16.37
2018-03-02T03:03:50.802Z,17.23
2018-03-02T03:06:22.232Z,17.80
2018-03-02T03:08:53.198Z,17.92
2018-03-02T03:11:24.507Z,18.95
2018-03-02T03:13:56.076Z,16.65
2018-03-02T03:16:27.566Z,17.80
2018-03-02T03:18:59.947Z,17.37
2018-03-02T03:21:30.948Z,16.05
2018-03-02T03:24:02.280Z,18.85
2018-03-02T03:26:33.709Z,16.00
2018-03-02T03:29:05.705Z,17.23
2018-03-02T03:31:37.223Z,18.80
2018-03-02T03:34:08.006Z,17.70
2018-03-02T03:36:39.494Z,18.25
2018-03-02T03:39:10.434Z,17.33
2018-03-02T03:41:43.106Z,18.08
2018-03-02T03:44:14.087Z,18.00
2018-03-02T03:46:45.324Z,16.23
2018-03-02T03:49:16.474Z,17.95
2018-03-02T03:51:47.474Z,16.60
2018-03-02T03:54:19.309Z,18.83
2018-03-02T03:56:47.435Z,18.98
2018-03-02T03:59:16.089Z,15.88
2018-03-02T04:01:44.022Z,16.02
2018-03-02T04:04:11.934Z,16.10
2018-03-02T04:06:39.930Z,16.12
2018-03-02T04:09:07.832Z,16.33
2018-03-02T04:11:35.768Z,17.02
2018-03-02T04:14:10.961Z,19.10
2018-03-02T04:16:38.901Z,16.77
2018-03-02T04:19:06.817Z,16.83
2018-03-02T04:21:34.748Z,18.42
2018-03-02T04:24:02.658Z,17.65
2018-03-02T04:26:30.625Z,18.45
2018-03-02T04:28:58.523Z,18.92
2018-03-02T04:31:27.257Z,17.67
2018-03-02T04:33:55.153Z,16.27
2018-03-02T04:36:23.088Z,16.77
2018-03-02T04:38:50.989Z,17.58
2018-03-02T04:41:18.941Z,17.35
2018-03-02T04:43:46.961Z,18.35
2018-03-02T04:46:15.665Z,19.52
2018-03-02T04:48:43.558Z,19.60
2018-03-02T04:51:11.493Z,18.60
2018-03-02T04:53:40.166Z,18.92
2018-03-02T04:56:08.123Z,18.15
2018-03-02T04:58:36.075Z,20.70
2018-03-02T05:01:04.035Z,18.60
2018-03-02T05:03:31.945Z,17.65
2018-03-02T05:05:59.885Z,21.08
2018-03-02T05:08:27.778Z,16.90
2018-03-02T05:10:55.671Z,26.80
2018-03-02T05:13:24.484Z,19.95
2018-03-02T05:15:52.464Z,18.42
2018-03-02T05:18:20.715Z,20.92
2018-03-02T05:20:48.623Z,20.35
2018-03-02T05:23:16.570Z,19.27
2018-03-02T05:25:44.465Z,18.45
2018-03-02T05:28:12.416Z,18.52
2018-03-02T05:30:40.318Z,16.30
2018-03-02T05:33:08.269Z,16.67
2018-03-02T05:35:36.164Z,24.92
2018-03-02T05:38:04.137Z,16.98
2018-03-02T05:40:35.367Z,18.00
2018-03-02T05:43:07.391Z,19.98
2018-03-02T05:45:35.471Z,19.45
2018-03-02T05:48:03.422Z,18.23
2018-03-02T05:50:31.369Z,18.98
2018-03-02T05:53:00.094Z,18.40
2018-03-02T05:55:28.042Z,19.33
2018-03-02T05:58:01.618Z,20.23
2018-03-02T06:00:30.715Z,21.20
2018-03-02T06:02:58.677Z,18.77
2018-03-02T06:05:26.566Z,19.25
2018-03-02T06:07:55.285Z,19.20
2018-03-02T06:10:23.190Z,17.95
2018-03-02T06:12:51.154Z,20.73
2018-03-02T06:15:19.057Z,20.98
2018-03-02T06:17:47.028Z,18.70
2018-03-02T06:20:15.713Z,19.95
2018-03-02T06:22:43.770Z,21.92
2018-03-02T06:25:11.706Z,18.50
2018-03-02T06:27:39.656Z,20.27
2018-03-02T06:30:07.629Z,17.98
2018-03-02T06:32:35.592Z,19.87
2018-03-02T06:35:03.508Z,19.35
2018-03-02T06:37:31.464Z,18.52
2018-03-02T06:39:59.396Z,19.67
2018-03-02T06:42:27.356Z,18.73
2018-03-02T06:44:56.028Z,19.45
2018-03-02T06:47:23.976Z,17.35
2018-03-02T06:49:51.864Z,19.15
2018-03-02T06:52:19.988Z,19.12
2018-03-02T06:54:47.879Z,18.77
2018-03-02T06:57:15.829Z,17.52
2018-03-02T06:59:43.778Z,17.80
2018-03-02T07:02:11.725Z,19.10
2018-03-02T07:04:39.628Z,18.10
2018-03-02T07:07:07.568Z,18.20
2018-03-02T07:09:35.448Z,16.05
2018-03-02T07:12:03.402Z,18.60
2018-03-02T07:14:31.356Z,18.17
2018-03-02T07:16:59.312Z,18.30
2018-03-02T07:19:27.207Z,18.65
2018-03-02T07:21:55.932Z,18.35
2018-03-02T07:24:23.833Z,18.33
2018-03-02T07:26:51.769Z,19.23
2018-03-02T07:29:19.667Z,19.37
2018-03-02T07:31:47.615Z,18.10
2018-03-02T07:34:15.514Z,20.73
2018-03-02T07:36:43.473Z,18.08
2018-03-02T07:39:11.356Z,20.55
2018-03-02T07:41:39.287Z,17.85
2018-03-02T07:44:07.375Z,19.20
2018-03-02T07:46:35.278Z,18.40
2018-03-02T07:49:03.209Z,18.83
2018-03-02T07:51:31.100Z,19.52
2018-03-02T07:53:59.071Z,18.23
2018-03-02T07:56:26.960Z,17.92
2018-03-02T07:58:54.898Z,17.75
2018-03-02T08:01:22.791Z,19.80
2018-03-02T08:03:50.740Z,20.35
2018-03-02T08:06:18.692Z,19.85
2018-03-02T08:08:46.619Z,19.40
2018-03-02T08:11:15.281Z,20.70
2018-03-02T08:13:43.310Z,19.33
2018-03-02T08:16:11.219Z,19.42
2018-03-02T08:18:39.204Z,18.73
2018-03-02T08:21:07.144Z,18.95
2018-03-02T08:23:35.093Z,19.62
2018-03-02T08:26:03.059Z,18.73
2018-03-02T08:28:31.078Z,20.77
2018-03-02T08:30:58.996Z,19.60
2018-03-02T08:33:26.950Z,20.75
2018-03-02T08:35:55.176Z,19.80
2018-03-02T08:38:23.120Z,18.20
2018-03-02T08:40:51.020Z,19.65
2018-03-02T08:43:26.023Z,21.00
2018-03-02T08:45:53.947Z,19.80
2018-03-02T08:48:21.857Z,20.35
2018-03-02T08:50:49.815Z,18.45
2018-03-02T08:53:17.732Z,19.52
2018-03-02T08:55:45.674Z,20.55
2018-03-02T08:58:13.591Z,19.12
2018-03-02T09:00:41.552Z,16.85
2018-03-02T09:03:09.447Z,19.15
2018-03-02T09:05:37.398Z,19.15
2018-03-02T09:08:05.295Z,19.77
2018-03-02T09:10:33.259Z,21.33
2018-03-02T09:13:05.948Z,18.85
2018-03-02T09:15:33.917Z,18.42
2018-03-02T09:18:01.834Z,20.88
2018-03-02T09:20:29.865Z,20.52
2018-03-02T09:22:57.935Z,19.80
2018-03-02T09:25:26.071Z,20.48
2018-03-02T09:27:54.074Z,19.80
2018-03-02T09:30:22.008Z,23.15
2018-03-02T09:32:51.635Z,20.00
2018-03-02T09:35:19.899Z,21.10
2018-03-02T09:37:47.780Z,21.45
2018-03-02T09:40:16.234Z,20.67
2018-03-02T09:42:45.154Z,19.48
2018-03-02T09:45:13.182Z,21.33
2018-03-02T09:47:41.069Z,20.17
2018-03-02T09:50:08.982Z,21.98
2018-03-02T09:52:36.913Z,21.90
2018-03-02T09:55:04.796Z,20.58
2018-03-02T09:57:32.730Z,21.20
2018-03-02T10:00:00.709Z,19.90
2018-03-02T10:02:30.388Z,19.02
2018-03-02T10:04:58.412Z,20.15
2018-03-02T10:07:26.351Z,20.05
2018-03-02T10:09:54.251Z,21.90
2018-03-02T10:12:23.183Z,21.95
2018-03-02T10:14:53.964Z,20.35
2018-03-02T10:17:22.073Z,21.20
2018-03-02T10:19:49.964Z,20.88
2018-03-02T10:22:17.897Z,20.60
2018-03-02T10:24:45.780Z,20.77
2018-03-02T10:27:13.825Z,20.27
2018-03-02T10:29:41.741Z,22.30
2018-03-02T10:32:09.821Z,21.65
2018-03-02T10:34:37.707Z,21.35
2018-03-02T10:37:05.615Z,21.10
2018-03-02T10:39:33.550Z,20.23
2018-03-02T10:42:01.447Z,21.85
2018-03-02T10:44:29.387Z,22.15
2018-03-02T10:46:57.273Z,19.10
2018-03-02T10:49:25.230Z,22.17
2018-03-02T10:51:53.121Z,21.85
2018-03-02T10:54:21.253Z,22.55
2018-03-02T10:56:49.143Z,23.45
2018-03-02T10:59:17.075Z,21.95
2018-03-02T11:01:50.651Z,21.60
2018-03-02T11:04:18.627Z,21.80
2018-03-02T11:06:46.513Z,20.75
2018-03-02T11:09:14.493Z,23.80
2018-03-02T11:11:42.394Z,20.98
2018-03-02T11:14:10.346Z,21.48
2018-03-02T11:16:38.275Z,21.67
2018-03-02T11:19:06.251Z,20.35
2018-03-02T11:21:34.140Z,21.80
2018-03-02T11:24:06.126Z,21.27
2018-03-02T11:26:34.022Z,21.40
2018-03-02T11:29:02.501Z,21.45
2018-03-02T11:31:30.549Z,22.13
2018-03-02T11:33:58.494Z,22.30
2018-03-02T11:36:26.430Z,22.30
2018-03-02T11:38:55.128Z,22.08
2018-03-02T11:41:23.112Z,23.23
2018-03-02T11:43:51.097Z,23.60
2018-03-02T11:46:19.007Z,21.98
2018-03-02T11:48:46.954Z,22.83
2018-03-02T11:51:15.717Z,21.83
2018-03-02T11:53:43.925Z,20.90
2018-03-02T11:56:11.810Z,22.33
2018-03-02T11:58:39.747Z,21.12
2018-03-02T12:01:07.714Z,23.10
2018-03-02T12:03:35.656Z,21.33
2018-03-02T12:06:03.540Z,22.08
2018-03-02T12:08:31.532Z,20.77
2018-03-02T12:10:59.429Z,22.27
2018-03-02T12:13:27.393Z,22.52
2018-03-02T12:15:55.313Z,23.60
2018-03-02T12:18:23.218Z,21.02
2018-03-02T12:20:51.190Z,23.08
2018-03-02T12:23:19.180Z,22.42
2018-03-02T12:25:47.135Z,23.40
2018-03-02T12:28:15.146Z,23.40
2018-03-02T12:30:43.107Z,24.87
2018-03-02T12:33:11.766Z,22.98
2018-03-02T12:35:39.729Z,22.60
2018-03-02T12:38:07.663Z,23.52
2018-03-02T12:40:35.630Z,25.75
2018-03-02T12:43:04.497Z,22.08
2018-03-02T12:45:32.749Z,23.73
2018-03-02T12:48:00.642Z,22.65
2018-03-02T12:50:28.615Z,24.77
2018-03-02T12:53:07.239Z,23.10
2018-03-02T12:55:38.671Z,21.77
2018-03-02T12:58:06.602Z,22.87
2018-03-02T13:00:34.612Z,21.92
2018-03-02T13:03:02.576Z,23.05
2018-03-02T13:05:30.526Z,21.48
2018-03-02T13:07:58.430Z,23.67
2018-03-02T13:10:26.416Z,24.00
2018-03-02T13:13:00.550Z,22.65
2018-03-02T13:15:29.267Z,22.42
2018-03-02T13:17:57.146Z,22.25
2018-03-02T13:20:25.125Z,22.75
2018-03-02T13:22:53.048Z,24.20
2018-03-02T13:25:21.008Z,23.38
2018-03-02T13:28:00.550Z,23.67
2018-03-02T13:30:28.552Z,26.05
2018-03-02T13:33:08.166Z,23.70
2018-03-02T13:35:36.962Z,22.70
2018-03-02T13:38:04.934Z,24.77
2018-03-02T13:40:45.514Z,23.12
2018-03-02T13:43:13.411Z,23.52
2018-03-02T13:45:41.357Z,24.67
2018-03-02T13:51:12.354Z,25.55
2018-03-02T13:53:41.052Z,25.35
2018-03-02T13:59:05.955Z,25.85
2018-03-02T14:01:33.940Z,25.45
2018-03-02T14:04:13.535Z,27.25
2018-03-02T14:06:41.533Z,24.65
2018-03-02T14:09:09.448Z,24.23
2018-03-02T14:11:37.497Z,24.67
2018-03-02T14:14:05.416Z,26.83
2018-03-02T14:16:33.400Z,25.45
2018-03-02T14:19:01.340Z,24.25
2018-03-02T14:21:29.306Z,27.10
2018-03-02T14:24:05.840Z,24.83
2018-03-02T14:26:34.577Z,24.00
2018-03-02T14:29:02.576Z,27.00
2018-03-02T14:31:30.588Z,24.50
2018-03-02T14:33:58.491Z,24.75
2018-03-02T14:36:26.465Z,25.48
2018-03-02T14:38:54.364Z,26.23
2018-03-02T14:41:22.334Z,26.30
2018-03-02T14:43:50.303Z,25.42
2018-03-02T14:46:18.278Z,25.45
2018-03-02T14:48:46.257Z,24.67
2018-03-02T14:51:14.996Z,23.02
2018-03-02T14:53:43.058Z,24.60
2018-03-02T14:56:11.029Z,25.98
2018-03-02T14:58:38.942Z,24.02
2018-03-02T15:01:06.989Z,23.85
2018-03-02T15:03:34.898Z,24.45
2018-03-02T15:06:02.885Z,23.95
2018-03-02T15:08:30.869Z,23.48
2018-03-02T15:10:59.167Z,24.95
2018-03-02T15:13:27.082Z,21.73
2018-03-02T15:15:55.074Z,23.52
2018-03-02T15:18:23.022Z,25.33
2018-03-02T15:20:50.987Z,24.58
2018-03-02T15:23:18.972Z,24.40
2018-03-02T15:25:47.753Z,22.48
2018-03-02T15:28:15.697Z,24.77
2018-03-02T15:30:43.608Z,24.65
2018-03-02T15:33:11.565Z,22.50
2018-03-02T15:35:40.254Z,24.50
2018-03-02T15:38:09.027Z,23.65
2018-03-02T15:40:36.938Z,23.15
2018-03-02T15:43:04.919Z,24.02
2018-03-02T15:45:32.851Z,22.55
2018-03-02T15:48:01.622Z,22.33
2018-03-02T15:50:29.545Z,23.75
2018-03-02T15:53:01.134Z,24.20
2018-03-02T15:55:29.062Z,23.12
2018-03-02T15:57:57.047Z,22.42
2018-03-02T16:00:24.975Z,24.40
2018-03-02T16:02:53.738Z,23.25
2018-03-02T16:05:21.656Z,25.70
2018-03-02T16:07:49.633Z,23.62
2018-03-02T16:10:17.560Z,24.08
2018-03-02T16:12:45.532Z,24.45
2018-03-02T16:15:13.503Z,24.20
2018-03-02T16:17:41.525Z,25.15
2018-03-02T16:20:09.466Z,25.00
2018-03-02T16:22:39.554Z,24.80
2018-03-02T16:25:08.276Z,24.35
2018-03-02T16:27:36.280Z,25.15
2018-03-02T16:30:04.260Z,24.92
2018-03-02T16:32:32.240Z,23.55
2018-03-02T16:35:00.199Z,24.45
2018-03-02T16:37:28.171Z,24.52
2018-03-02T16:39:56.088Z,25.10
2018-03-02T16:42:24.006Z,23.70
2018-03-02T16:44:52.027Z,26.17
2018-03-02T16:47:19.934Z,25.55
2018-03-02T16:49:47.901Z,24.58
2018-03-02T16:52:15.858Z,25.27
2018-03-02T16:54:43.852Z,23.25
2018-03-02T16:57:11.758Z,24.87
2018-03-02T16:59:39.737Z,25.80
2018-03-02T17:02:07.641Z,26.55
2018-03-02T17:04:35.675Z,28.67
2018-03-02T17:07:03.624Z,26.80
2018-03-02T17:09:31.593Z,26.37
2018-03-02T17:11:59.518Z,27.15
2018-03-02T17:14:28.462Z,25.70
2018-03-02T17:16:56.461Z,25.42
2018-03-02T17:19:25.199Z,26.98
2018-03-02T17:21:53.123Z,27.42
2018-03-02T17:24:21.116Z,27.95
2018-03-02T17:26:49.141Z,25.48
2018-03-02T17:29:17.032Z,26.67
2018-03-02T17:31:45.792Z,27.10
2018-03-02T17:34:13.758Z,27.60
2018-03-02T17:36:41.694Z,26.83
2018-03-02T17:39:09.661Z,26.30
2018-03-02T17:41:37.586Z,27.30
2018-03-02T17:44:05.629Z,27.45
2018-03-02T17:46:33.548Z,26.60
2018-03-02T17:49:01.550Z,29.10
2018-03-02T17:51:29.530Z,27.95
2018-03-02T17:53:57.463Z,27.05
2018-03-02T17:56:25.494Z,26.45
2018-03-02T17:58:53.401Z,26.92
2018-03-02T18:01:21.387Z,27.27
2018-03-02T18:03:49.421Z,26.75
2018-03-02T18:06:17.442Z,27.45
2018-03-02T18:08:45.381Z,27.73
2018-03-02T18:11:13.420Z,29.58
2018-03-02T18:13:41.541Z,26.70
2018-03-02T18:16:09.506Z,27.20
2018-03-02T18:18:38.001Z,28.05
2018-03-02T18:21:06.036Z,28.55
2018-03-02T18:23:34.768Z,27.62
2018-03-02T18:26:02.706Z,29.67
2018-03-02T18:28:30.616Z,29.30
2018-03-02T18:30:58.578Z,26.98
2018-03-02T18:33:26.701Z,28.00
2018-03-02T18:35:55.472Z,32.13
2018-03-02T18:38:23.452Z,30.83
2018-03-02T18:40:51.432Z,30.30
2018-03-02T18:43:20.224Z,29.87
2018-03-02T18:45:53.498Z,31.33
2018-03-02T18:48:21.586Z,32.90
2018-03-02T18:50:49.630Z,31.17
2018-03-02T18:53:17.572Z,30.00
2018-03-02T18:55:45.556Z,30.92
2018-03-02T18:58:13.498Z,35.30
2018-03-02T19:00:41.563Z,34.72
2018-03-02T19:03:09.585Z,33.55
2018-03-02T19:05:37.503Z,34.58
2018-03-02T19:08:05.553Z,32.78
2018-03-02T19:10:34.223Z,36.83
2018-03-02T19:13:02.298Z,32.05
2018-03-02T19:15:30.257Z,32.25
2018-03-02T19:17:58.742Z,32.85
2018-03-02T19:20:26.662Z,31.02
2018-03-02T19:22:54.670Z,34.03
2018-03-02T19:25:22.592Z,33.60
2018-03-02T19:27:51.309Z,39.08
2018-03-02T19:30:19.264Z,35.47
2018-03-02T19:32:47.294Z,33.03
2018-03-02T19:35:15.215Z,34.90
2018-03-02T19:37:43.232Z,32.92
2018-03-02T19:40:11.156Z,34.17
2018-03-02T19:42:42.508Z,35.38
2018-03-02T19:45:10.397Z,32.53
2018-03-02T19:47:40.298Z,33.30
2018-03-02T19:50:08.207Z,32.92
2018-03-02T19:52:36.162Z,34.03
2018-03-02T19:55:04.085Z,30.45
2018-03-02T19:57:32.039Z,34.30
2018-03-02T20:00:00.050Z,34.10
2018-03-02T20:02:28.537Z,31.83
2018-03-02T20:04:56.426Z,33.10
2018-03-02T20:07:24.325Z,31.70
2018-03-02T20:09:53.061Z,34.50
2018-03-02T20:12:28.178Z,34.72
2018-03-02T20:14:56.129Z,32.40
2018-03-02T20:17:24.093Z,35.80
2018-03-02T20:19:52.812Z,33.92
2018-03-02T20:22:20.720Z,34.75
2018-03-02T20:24:48.732Z,34.65
2018-03-02T20:27:16.738Z,34.85
2018-03-02T20:29:44.700Z,34.85
2018-03-02T20:32:12.728Z,37.05
2018-03-02T20:34:41.510Z,35.85
2018-03-02T20:37:10.360Z,35.35
2018-03-02T20:39:38.394Z,39.75
2018-03-02T20:42:06.355Z,36.22
2018-03-02T20:44:34.404Z,33.95
2018-03-02T20:47:02.474Z,38.25
2018-03-02T20:49:30.487Z,36.75
2018-03-02T20:51:58.379Z,36.88
2018-03-02T20:54:26.296Z,37.55
2018-03-02T20:56:54.215Z,36.80
2018-03-02T20:59:22.209Z,37.20
2018-03-02T21:01:50.114Z,39.08
2018-03-02T21:04:18.146Z,37.72
2018-03-02T21:06:46.175Z,40.35
2018-03-02T21:09:14.103Z,42.00
2018-03-02T21:11:42.010Z,37.78
2018-03-02T21:14:12.135Z,41.42
2018-03-02T21:16:40.146Z,39.45
2018-03-02T21:19:08.090Z,35.42
2018-03-02T21:21:38.373Z,39.92
2018-03-02T21:24:07.319Z,40.97
2018-03-02T21:26:35.383Z,42.10
2018-03-02T21:29:04.729Z,43.40
2018-03-02T21:31:32.725Z,39.60
2018-03-02T21:34:00.634Z,40.08
2018-03-02T21:36:28.644Z,40.53
2018-03-02T21:38:56.558Z,41.97
2018-03-02T21:41:24.516Z,38.90
2018-03-02T21:43:52.462Z,44.90
2018-03-02T21:46:21.284Z,46.05
2018-03-02T21:48:49.191Z,41.90
2018-03-02T21:51:17.167Z,42.47
2018-03-02T21:53:48.502Z,46.88
2018-03-02T21:56:16.478Z,41.78
2018-03-02T21:58:44.443Z,42.95
2018-03-02T22:01:12.426Z,43.70
2018-03-02T22:03:40.356Z,42.15
2018-03-02T22:06:08.340Z,38.38
2018-03-02T22:08:36.260Z,42.35
2018-03-02T22:11:05.029Z,39.65
2018-03-02T22:13:32.937Z,43.30
2018-03-02T22:16:00.895Z,40.72
2018-03-02T22:18:28.816Z,40.08
2018-03-02T22:20:56.804Z,42.97
2018-03-02T22:23:27.084Z,39.55
2018-03-02T22:25:55.057Z,43.38
2018-03-02T22:28:22.969Z,39.22
2018-03-02T22:30:50.943Z,39.65
2018-03-02T22:33:18.980Z,40.10
2018-03-02T22:35:46.887Z,41.15
2018-03-02T22:38:18.399Z,40.08
2018-03-02T22:40:46.877Z,39.03
2018-03-02T22:43:18.820Z,41.40
2018-03-02T22:45:50.268Z,43.72
2018-03-02T22:48:19.396Z,39.92
2018-03-02T22:50:50.511Z,39.15
2018-03-02T22:53:19.555Z,40.80
2018-03-02T22:55:51.629Z,42.35
2018-03-02T22:58:23.061Z,39.75
2018-03-02T23:00:50.978Z,39.95
2018-03-02T23:03:19.789Z,40.17
2018-03-02T23:05:48.427Z,42.03
2018-03-02T23:08:22.454Z,41.20
2018-03-02T23:10:50.444Z,40.53
2018-03-02T23:13:20.957Z,40.97
2018-03-02T23:15:50.898Z,41.15
2018-03-02T23:18:19.320Z,42.92
2018-03-02T23:20:47.607Z,39.58
2018-03-02T23:23:15.582Z,40.53
2018-03-02T23:25:43.508Z,41.92
2018-03-02T23:28:11.465Z,42.05
2018-03-02T23:30:39.553Z,41.70
2018-03-02T23:33:07.530Z,43.40
2018-03-02T23:35:35.438Z,40.40
2018-03-02T23:38:04.540Z,39.95
2018-03-02T23:40:32.532Z,41.63
2018-03-02T23:43:01.401Z,38.95
2018-03-02T23:45:29.324Z,40.53
2018-03-02T23:47:57.713Z,39.97
2018-03-02T23:50:25.727Z,42.83
2018-03-02T23:52:53.678Z,39.28
2018-03-02T23:55:21.583Z,41.75
2018-03-02T23:57:50.329Z,41.15
